sensor_id;sensor_type;location;lat;lon;timestamp;pressure;altitude;pressure_sealevel;temperature;humidity
8366;BME280;4220;42.502;24.188;2023-04-26T00:00:15;94272.56;;;9.97;100.00
8366;BME280;4220;42.502;24.188;2023-04-26T00:02:43;94273.91;;;9.99;100.00
8366;BME280;4220;42.502;24.188;2023-04-26T00:05:10;94263.38;;;9.88;100.00
8366;BME280;4220;42.502;24.188;2023-04-26T00:07:36;94254.34;;;9.72;100.00
8366;BME280;4220;42.502;24.188;2023-04-26T00:10:04;94258.69;;;9.78;100.00
8366;BME280;4220;42.502;24.188;2023-04-26T00:12:31;94263.91;;;9.61;100.00
8366;BME280;4220;42.502;24.188;2023-04-26T00:14:58;94261.75;;;9.58;100.00
8366;BME280;4220;42.502;24.188;2023-04-26T00:17:25;94259.09;;;9.58;100.00
8366;BME280;4220;42.502;24.188;2023-04-26T00:19:53;94261.75;;;9.58;100.00
8366;BME280;4220;42.502;24.188;2023-04-26T00:22:22;94242.91;;;9.55;100.00
8366;BME280;4220;42.502;24.188;2023-04-26T00:24:49;94244.94;;;9.64;100.00
8366;BME280;4220;42.502;24.188;2023-04-26T00:27:16;94230.22;;;9.57;100.00
8366;BME280;4220;42.502;24.188;2023-04-26T00:29:43;94240.84;;;9.73;100.00
8366;BME280;4220;42.502;24.188;2023-04-26T00:32:10;94236.63;;;9.72;100.00
8366;BME280;4220;42.502;24.188;2023-04-26T00:34:37;94238.66;;;9.82;100.00
8366;BME280;4220;42.502;24.188;2023-04-26T00:37:05;94234.72;;;9.84;100.00
8366;BME280;4220;42.502;24.188;2023-04-26T00:39:33;94240.84;;;10.02;100.00
8366;BME280;4220;42.502;24.188;2023-04-26T00:41:59;94236.22;;;10.09;100.00
8366;BME280;4220;42.502;24.188;2023-04-26T00:44:26;94233.13;;;10.12;100.00
8366;BME280;4220;42.502;24.188;2023-04-26T00:46:53;94230.34;;;10.07;100.00
8366;BME280;4220;42.502;24.188;2023-04-26T00:49:23;94228.59;;;10.12;100.00
8366;BME280;4220;42.502;24.188;2023-04-26T00:51:50;94224.44;;;10.16;100.00
8366;BME280;4220;42.502;24.188;2023-04-26T00:54:20;94213.56;;;10.01;100.00
8366;BME280;4220;42.502;24.188;2023-04-26T00:56:47;94223.25;;;9.96;100.00
8366;BME280;4220;42.502;24.188;2023-04-26T00:59:17;94211.25;;;9.76;100.00
8366;BME280;4220;42.502;24.188;2023-04-26T01:01:44;94227.16;;;9.76;100.00
8366;BME280;4220;42.502;24.188;2023-04-26T01:04:10;94228.03;;;9.65;100.00
8366;BME280;4220;42.502;24.188;2023-04-26T01:06:39;94224.22;;;9.61;100.00
8366;BME280;4220;42.502;24.188;2023-04-26T01:09:06;94232.16;;;9.61;100.00
8366;BME280;4220;42.502;24.188;2023-04-26T01:11:37;94217.81;;;9.57;100.00
8366;BME280;4220;42.502;24.188;2023-04-26T01:14:04;94220.84;;;9.66;100.00
8366;BME280;4220;42.502;24.188;2023-04-26T01:16:33;94206.75;;;9.60;100.00
8366;BME280;4220;42.502;24.188;2023-04-26T01:19:06;94212.78;;;9.72;100.00
8366;BME280;4220;42.502;24.188;2023-04-26T01:21:33;94217.94;;;9.79;100.00
8366;BME280;4220;42.502;24.188;2023-04-26T01:24:02;94212.06;;;9.77;100.00
8366;BME280;4220;42.502;24.188;2023-04-26T01:26:29;94224.34;;;9.83;100.00
8366;BME280;4220;42.502;24.188;2023-04-26T01:28:56;94216.31;;;9.78;100.00
8366;BME280;4220;42.502;24.188;2023-04-26T01:31:23;94227.34;;;9.86;100.00
8366;BME280;4220;42.502;24.188;2023-04-26T01:33:50;94205.72;;;9.78;100.00
8366;BME280;4220;42.502;24.188;2023-04-26T01:36:17;94208.72;;;9.81;100.00
8366;BME280;4220;42.502;24.188;2023-04-26T01:38:44;94223.25;;;9.96;100.00
8366;BME280;4220;42.502;24.188;2023-04-26T01:41:12;94217.66;;;9.92;100.00
8366;BME280;4220;42.502;24.188;2023-04-26T01:43:38;94212.38;;;9.80;100.00
8366;BME280;4220;42.502;24.188;2023-04-26T01:46:05;94218.84;;;9.84;100.00
8366;BME280;4220;42.502;24.188;2023-04-26T01:48:32;94217.31;;;9.88;100.00
8366;BME280;4220;42.502;24.188;2023-04-26T01:50:59;94206.25;;;9.92;100.00
8366;BME280;4220;42.502;24.188;2023-04-26T01:53:26;94215.31;;;9.96;100.00
8366;BME280;4220;42.502;24.188;2023-04-26T01:55:52;94211.72;;;10.02;100.00
8366;BME280;4220;42.502;24.188;2023-04-26T01:58:21;94214.13;;;10.03;100.00
8366;BME280;4220;42.502;24.188;2023-04-26T02:00:48;94207.53;;;10.06;100.00
8366;BME280;4220;42.502;24.188;2023-04-26T02:03:15;94214.13;;;10.03;100.00
8366;BME280;4220;42.502;24.188;2023-04-26T02:05:42;94195.81;;;9.85;100.00
8366;BME280;4220;42.502;24.188;2023-04-26T02:08:09;94203.34;;;9.93;100.00
8366;BME280;4220;42.502;24.188;2023-04-26T02:10:36;94207.06;;;9.92;100.00
8366;BME280;4220;42.502;24.188;2023-04-26T02:13:02;94218.28;;;9.82;100.00
8366;BME280;4220;42.502;24.188;2023-04-26T02:15:31;94227.63;;;9.73;100.00
8366;BME280;4220;42.502;24.188;2023-04-26T02:17:57;94233.88;;;9.67;100.00
8366;BME280;4220;42.502;24.188;2023-04-26T02:20:24;94236.44;;;9.62;100.00
8366;BME280;4220;42.502;24.188;2023-04-26T02:22:51;94226.78;;;9.56;100.00
8366;BME280;4220;42.502;24.188;2023-04-26T02:25:18;94218.25;;;9.54;100.00
8366;BME280;4220;42.502;24.188;2023-04-26T02:27:45;94218.81;;;9.56;100.00
8366;BME280;4220;42.502;24.188;2023-04-26T02:30:12;94226.19;;;9.54;100.00
8366;BME280;4220;42.502;24.188;2023-04-26T02:32:40;94205.50;;;9.51;100.00
8366;BME280;4220;42.502;24.188;2023-04-26T02:35:08;94116.78;;;8.92;100.00
8366;BME280;4220;42.502;24.188;2023-04-26T02:37:35;94211.97;;;9.44;100.00
8366;BME280;4220;42.502;24.188;2023-04-26T02:40:02;94220.72;;;9.44;100.00
8366;BME280;4220;42.502;24.188;2023-04-26T02:42:29;94222.44;;;9.50;100.00
8366;BME280;4220;42.502;24.188;2023-04-26T02:44:56;94234.72;;;9.56;100.00
8366;BME280;4220;42.502;24.188;2023-04-26T02:47:23;94236.44;;;9.62;100.00
8366;BME280;4220;42.502;24.188;2023-04-26T02:49:52;94232.16;;;9.61;100.00
8366;BME280;4220;42.502;24.188;2023-04-26T02:52:19;94244.22;;;9.69;100.00
8366;BME280;4220;42.502;24.188;2023-04-26T02:54:45;94240.09;;;9.61;100.00
8366;BME280;4220;42.502;24.188;2023-04-26T02:57:12;94233.69;;;9.57;100.00
8366;BME280;4220;42.502;24.188;2023-04-26T02:59:39;94238.41;;;9.55;100.00
8366;BME280;4220;42.502;24.188;2023-04-26T03:02:06;94243.34;;;9.52;100.00
8366;BME280;4220;42.502;24.188;2023-04-26T03:04:33;94241.53;;;9.52;100.00
8366;BME280;4220;42.502;24.188;2023-04-26T03:07:01;94232.47;;;9.48;100.00
8366;BME280;4220;42.502;24.188;2023-04-26T03:09:28;94202.56;;;9.36;100.00
8366;BME280;4220;42.502;24.188;2023-04-26T03:11:56;94228.47;;;9.62;100.00
8366;BME280;4220;42.502;24.188;2023-04-26T03:14:22;94235.25;;;9.70;100.00
8366;BME280;4220;42.502;24.188;2023-04-26T03:16:49;94234.69;;;9.68;100.00
8366;BME280;4220;42.502;24.188;2023-04-26T03:19:16;94226.88;;;9.61;100.00
8366;BME280;4220;42.502;24.188;2023-04-26T03:21:43;94173.94;;;9.33;100.00
8366;BME280;4220;42.502;24.188;2023-04-26T03:24:11;94209.84;;;9.57;100.00
8366;BME280;4220;42.502;24.188;2023-04-26T03:26:38;94207.31;;;9.62;100.00
8366;BME280;4220;42.502;24.188;2023-04-26T03:29:05;94193.69;;;9.70;100.00
8366;BME280;4220;42.502;24.188;2023-04-26T03:31:32;94199.75;;;9.82;100.00
8366;BME280;4220;42.502;24.188;2023-04-26T03:33:59;94207.84;;;9.93;100.00
8366;BME280;4220;42.502;24.188;2023-04-26T03:36:26;94213.09;;;10.04;100.00
8366;BME280;4220;42.502;24.188;2023-04-26T03:38:54;94208.22;;;10.13;100.00
8366;BME280;4220;42.502;24.188;2023-04-26T03:41:23;94207.19;;;10.14;100.00
8366;BME280;4220;42.502;24.188;2023-04-26T03:43:50;94222.53;;;10.28;100.00
8366;BME280;4220;42.502;24.188;2023-04-26T03:46:17;94224.19;;;10.34;100.00
8366;BME280;4220;42.502;24.188;2023-04-26T03:48:44;94214.34;;;10.30;100.00
8366;BME280;4220;42.502;24.188;2023-04-26T03:51:10;94221.88;;;10.38;100.00
8366;BME280;4220;42.502;24.188;2023-04-26T03:53:37;94224.78;;;10.53;100.00
8366;BME280;4220;42.502;24.188;2023-04-26T03:56:04;94222.22;;;10.58;100.00
8366;BME280;4220;42.502;24.188;2023-04-26T03:58:33;94221.56;;;10.51;100.00
8366;BME280;4220;42.502;24.188;2023-04-26T04:01:00;94229.13;;;10.26;100.00
8366;BME280;4220;42.502;24.188;2023-04-26T04:03:28;94221.06;;;10.21;100.00
8366;BME280;4220;42.502;24.188;2023-04-26T04:05:55;94224.63;;;10.26;100.00
8366;BME280;4220;42.502;24.188;2023-04-26T04:08:22;94198.78;;;10.17;100.00
8366;BME280;4220;42.502;24.188;2023-04-26T04:10:49;94234.75;;;10.46;100.00
8366;BME280;4220;42.502;24.188;2023-04-26T04:13:16;94231.84;;;10.64;100.00
8366;BME280;4220;42.502;24.188;2023-04-26T04:15:44;94237.13;;;10.81;100.00
8366;BME280;4220;42.502;24.188;2023-04-26T04:18:11;94228.28;;;10.92;100.00
8366;BME280;4220;42.502;24.188;2023-04-26T04:20:39;94218.06;;;11.00;100.00
8366;BME280;4220;42.502;24.188;2023-04-26T04:23:06;94228.22;;;11.08;100.00
8366;BME280;4220;42.502;24.188;2023-04-26T04:25:34;94239.91;;;11.07;100.00
8366;BME280;4220;42.502;24.188;2023-04-26T04:28:01;94239.78;;;11.19;100.00
8366;BME280;4220;42.502;24.188;2023-04-26T04:30:28;94235.91;;;11.27;100.00
8366;BME280;4220;42.502;24.188;2023-04-26T04:32:56;94234.75;;;11.18;100.00
8366;BME280;4220;42.502;24.188;2023-04-26T04:35:24;94240.66;;;11.25;100.00
8366;BME280;4220;42.502;24.188;2023-04-26T04:37:53;94243.19;;;11.36;100.00
8366;BME280;4220;42.502;24.188;2023-04-26T04:40:22;94240.41;;;11.48;100.00
8366;BME280;4220;42.502;24.188;2023-04-26T04:42:50;94244.31;;;11.62;100.00
8366;BME280;4220;42.502;24.188;2023-04-26T04:45:18;94246.53;;;11.70;100.00
8366;BME280;4220;42.502;24.188;2023-04-26T04:47:45;94238.63;;;11.75;100.00
8366;BME280;4220;42.502;24.188;2023-04-26T04:50:14;94252.56;;;11.87;100.00
8366;BME280;4220;42.502;24.188;2023-04-26T04:52:41;94252.94;;;11.96;100.00
8366;BME280;4220;42.502;24.188;2023-04-26T04:55:08;94236.91;;;11.86;100.00
8366;BME280;4220;42.502;24.188;2023-04-26T04:57:35;94255.91;;;11.99;100.00
8366;BME280;4220;42.502;24.188;2023-04-26T05:00:02;94261.41;;;11.93;100.00
8366;BME280;4220;42.502;24.188;2023-04-26T05:02:34;94258.34;;;11.79;100.00
8366;BME280;4220;42.502;24.188;2023-04-26T05:05:02;94259.66;;;11.76;100.00
8366;BME280;4220;42.502;24.188;2023-04-26T05:07:31;94257.84;;;11.82;100.00
8366;BME280;4220;42.502;24.188;2023-04-26T05:09:58;94241.78;;;11.72;100.00
8366;BME280;4220;42.502;24.188;2023-04-26T05:12:25;94262.06;;;11.78;100.00
8366;BME280;4220;42.502;24.188;2023-04-26T05:14:52;94249.25;;;11.75;100.00
8366;BME280;4220;42.502;24.188;2023-04-26T05:17:19;94259.28;;;11.68;100.00
8366;BME280;4220;42.502;24.188;2023-04-26T05:19:46;94258.84;;;11.76;100.00
8366;BME280;4220;42.502;24.188;2023-04-26T05:22:13;94251.84;;;11.70;100.00
8366;BME280;4220;42.502;24.188;2023-04-26T05:24:44;94257.88;;;11.87;100.00
8366;BME280;4220;42.502;24.188;2023-04-26T05:27:12;94261.56;;;11.81;100.00
8366;BME280;4220;42.502;24.188;2023-04-26T05:29:39;94260.47;;;11.60;100.00
8366;BME280;4220;42.502;24.188;2023-04-26T05:32:06;94254.50;;;11.48;100.00
8366;BME280;4220;42.502;24.188;2023-04-26T05:34:33;94239.50;;;11.37;100.00
8366;BME280;4220;42.502;24.188;2023-04-26T05:36:59;94254.97;;;11.45;100.00
8366;BME280;4220;42.502;24.188;2023-04-26T05:39:26;94241.97;;;11.44;100.00
8366;BME280;4220;42.502;24.188;2023-04-26T05:41:54;94226.19;;;11.15;100.00
8366;BME280;4220;42.502;24.188;2023-04-26T05:44:21;94248.19;;;11.33;100.00
8366;BME280;4220;42.502;24.188;2023-04-26T05:46:48;94248.16;;;11.28;100.00
8366;BME280;4220;42.502;24.188;2023-04-26T05:49:15;94240.22;;;11.33;100.00
8366;BME280;4220;42.502;24.188;2023-04-26T05:51:42;94233.88;;;11.34;100.00
8366;BME280;4220;42.502;24.188;2023-04-26T05:54:09;94233.69;;;11.40;100.00
8366;BME280;4220;42.502;24.188;2023-04-26T05:56:36;94236.78;;;11.54;100.00
8366;BME280;4220;42.502;24.188;2023-04-26T05:59:04;94236.09;;;11.63;100.00
8366;BME280;4220;42.502;24.188;2023-04-26T06:01:31;94237.72;;;11.64;100.00
8366;BME280;4220;42.502;24.188;2023-04-26T06:03:58;94235.22;;;11.58;100.00
8366;BME280;4220;42.502;24.188;2023-04-26T06:06:25;94245.84;;;11.58;100.00
8366;BME280;4220;42.502;24.188;2023-04-26T06:08:52;94239.22;;;11.60;100.00
8366;BME280;4220;42.502;24.188;2023-04-26T06:11:19;94235.91;;;11.70;100.00
8366;BME280;4220;42.502;24.188;2023-04-26T06:13:46;94237.72;;;11.86;100.00
8366;BME280;4220;42.502;24.188;2023-04-26T06:16:14;94239.28;;;11.87;100.00
8366;BME280;4220;42.502;24.188;2023-04-26T06:18:41;94232.13;;;11.88;100.00
8366;BME280;4220;42.502;24.188;2023-04-26T06:21:07;94226.44;;;11.74;100.00
8366;BME280;4220;42.502;24.188;2023-04-26T06:23:34;94228.31;;;11.78;100.00
8366;BME280;4220;42.502;24.188;2023-04-26T06:26:01;94236.53;;;11.77;100.00
8366;BME280;4220;42.502;24.188;2023-04-26T06:28:28;94186.53;;;11.47;100.00
8366;BME280;4220;42.502;24.188;2023-04-26T06:30:55;94235.16;;;11.74;100.00
8366;BME280;4220;42.502;24.188;2023-04-26T06:33:23;94230.13;;;11.73;100.00
8366;BME280;4220;42.502;24.188;2023-04-26T06:35:50;94240.84;;;11.83;100.00
8366;BME280;4220;42.502;24.188;2023-04-26T06:38:17;94215.09;;;11.84;100.00
8366;BME280;4220;42.502;24.188;2023-04-26T06:40:43;94232.84;;;12.05;100.00
8366;BME280;4220;42.502;24.188;2023-04-26T06:43:11;94233.75;;;12.15;100.00
8366;BME280;4220;42.502;24.188;2023-04-26T06:45:37;94229.34;;;12.26;100.00
8366;BME280;4220;42.502;24.188;2023-04-26T06:48:05;94228.34;;;12.37;100.00
8366;BME280;4220;42.502;24.188;2023-04-26T06:50:36;94228.72;;;12.51;100.00
8366;BME280;4220;42.502;24.188;2023-04-26T06:53:04;94223.97;;;12.53;100.00
8366;BME280;4220;42.502;24.188;2023-04-26T06:55:31;94220.59;;;12.62;100.00
8366;BME280;4220;42.502;24.188;2023-04-26T06:57:58;94229.44;;;12.73;100.00
8366;BME280;4220;42.502;24.188;2023-04-26T07:00:25;94237.72;;;12.76;100.00
8366;BME280;4220;42.502;24.188;2023-04-26T07:02:52;94239.25;;;12.67;100.00
8366;BME280;4220;42.502;24.188;2023-04-26T07:05:19;94230.53;;;12.77;100.00
8366;BME280;4220;42.502;24.188;2023-04-26T07:07:47;94235.19;;;12.96;100.00
8366;BME280;4220;42.502;24.188;2023-04-26T07:10:14;94228.44;;;13.21;100.00
8366;BME280;4220;42.502;24.188;2023-04-26T07:12:41;94248.41;;;13.18;99.88
8366;BME280;4220;42.502;24.188;2023-04-26T07:15:09;94239.97;;;13.31;100.00
8366;BME280;4220;42.502;24.188;2023-04-26T07:17:36;94246.66;;;13.39;98.59
8366;BME280;4220;42.502;24.188;2023-04-26T07:20:03;94234.63;;;13.26;98.95
8366;BME280;4220;42.502;24.188;2023-04-26T07:22:30;94233.22;;;13.14;99.10
8366;BME280;4220;42.502;24.188;2023-04-26T07:24:59;94262.19;;;13.10;98.93
8366;BME280;4220;42.502;24.188;2023-04-26T07:27:25;94241.34;;;12.97;99.43
8366;BME280;4220;42.502;24.188;2023-04-26T07:29:53;94239.25;;;13.04;100.00
8366;BME280;4220;42.502;24.188;2023-04-26T07:32:20;94237.03;;;12.91;100.00
8366;BME280;4220;42.502;24.188;2023-04-26T07:34:47;94242.25;;;12.81;100.00
8366;BME280;4220;42.502;24.188;2023-04-26T07:37:14;94236.16;;;12.85;100.00
8366;BME280;4220;42.502;24.188;2023-04-26T07:39:41;94240.75;;;12.90;100.00
8366;BME280;4220;42.502;24.188;2023-04-26T07:42:09;94205.97;;;12.65;100.00
8366;BME280;4220;42.502;24.188;2023-04-26T07:44:36;94242.59;;;12.89;97.57
8366;BME280;4220;42.502;24.188;2023-04-26T07:47:03;94245.00;;;12.91;98.70
8366;BME280;4220;42.502;24.188;2023-04-26T07:49:30;94238.09;;;12.95;98.98
8366;BME280;4220;42.502;24.188;2023-04-26T07:51:56;94248.75;;;12.90;98.21
8366;BME280;4220;42.502;24.188;2023-04-26T07:54:26;94243.50;;;13.05;97.34
8366;BME280;4220;42.502;24.188;2023-04-26T07:56:53;94245.81;;;13.28;94.99
8366;BME280;4220;42.502;24.188;2023-04-26T07:59:21;94249.06;;;13.40;92.39
8366;BME280;4220;42.502;24.188;2023-04-26T08:01:48;94244.34;;;13.57;90.70
8366;BME280;4220;42.502;24.188;2023-04-26T08:04:16;94241.72;;;13.67;87.89
8366;BME280;4220;42.502;24.188;2023-04-26T08:06:43;94249.53;;;13.89;86.93
8366;BME280;4220;42.502;24.188;2023-04-26T08:09:13;94243.72;;;14.07;85.06
8366;BME280;4220;42.502;24.188;2023-04-26T08:11:39;94256.81;;;14.29;84.00
8366;BME280;4220;42.502;24.188;2023-04-26T08:14:06;94255.28;;;14.53;82.09
8366;BME280;4220;42.502;24.188;2023-04-26T08:16:34;94251.53;;;14.39;82.29
8366;BME280;4220;42.502;24.188;2023-04-26T08:19:01;94244.34;;;14.34;82.80
8366;BME280;4220;42.502;24.188;2023-04-26T08:21:28;94249.69;;;14.39;81.20
8366;BME280;4220;42.502;24.188;2023-04-26T08:23:55;94215.78;;;14.40;79.05
8366;BME280;4220;42.502;24.188;2023-04-26T08:26:23;94250.75;;;14.54;79.55
8366;BME280;4220;42.502;24.188;2023-04-26T08:28:50;94249.44;;;14.71;79.25
8366;BME280;4220;42.502;24.188;2023-04-26T08:31:17;94229.94;;;14.71;79.54
8366;BME280;4220;42.502;24.188;2023-04-26T08:33:45;94242.22;;;14.82;76.94
8366;BME280;4220;42.502;24.188;2023-04-26T08:36:15;94253.16;;;14.85;78.44
8366;BME280;4220;42.502;24.188;2023-04-26T08:38:41;94231.00;;;14.85;79.61
8366;BME280;4220;42.502;24.188;2023-04-26T08:41:12;94253.16;;;15.05;82.53
8366;BME280;4220;42.502;24.188;2023-04-26T08:43:39;94236.63;;;14.93;83.89
8366;BME280;4220;42.502;24.188;2023-04-26T08:46:10;94248.06;;;14.89;82.72
8366;BME280;4220;42.502;24.188;2023-04-26T08:48:38;94243.00;;;14.97;82.23
8366;BME280;4220;42.502;24.188;2023-04-26T08:51:08;94235.53;;;14.94;82.32
8366;BME280;4220;42.502;24.188;2023-04-26T08:53:39;94238.47;;;14.93;84.66
8366;BME280;4220;42.502;24.188;2023-04-26T08:56:07;94251.53;;;14.69;83.89
8366;BME280;4220;42.502;24.188;2023-04-26T08:58:36;94221.94;;;14.51;85.19
8366;BME280;4220;42.502;24.188;2023-04-26T09:01:04;94220.06;;;14.41;84.91
8366;BME280;4220;42.502;24.188;2023-04-26T09:03:31;94230.47;;;14.68;85.32
8366;BME280;4220;42.502;24.188;2023-04-26T09:05:59;94254.22;;;15.04;85.03
8366;BME280;4220;42.502;24.188;2023-04-26T09:08:28;94233.88;;;15.14;83.24
8366;BME280;4220;42.502;24.188;2023-04-26T09:10:55;94187.25;;;14.81;82.48
8366;BME280;4220;42.502;24.188;2023-04-26T09:13:27;94209.13;;;14.88;81.24
8366;BME280;4220;42.502;24.188;2023-04-26T09:15:54;94237.88;;;15.31;83.89
8366;BME280;4220;42.502;24.188;2023-04-26T09:18:22;94193.53;;;15.35;79.47
8366;BME280;4220;42.502;24.188;2023-04-26T09:21:02;94205.75;;;15.61;76.56
8366;BME280;4220;42.502;24.188;2023-04-26T09:23:31;94232.81;;;16.04;72.46
8366;BME280;4220;42.502;24.188;2023-04-26T09:26:17;94211.78;;;16.31;72.02
8366;BME280;4220;42.502;24.188;2023-04-26T09:28:45;94236.66;;;16.31;71.53
8366;BME280;4220;42.502;24.188;2023-04-26T09:31:34;94242.19;;;16.01;72.10
8366;BME280;4220;42.502;24.188;2023-04-26T09:34:03;94249.25;;;15.77;72.66
8366;BME280;4220;42.502;24.188;2023-04-26T09:36:30;94208.75;;;15.45;73.43
8366;BME280;4220;42.502;24.188;2023-04-26T09:38:58;94232.22;;;15.53;76.15
8366;BME280;4220;42.502;24.188;2023-04-26T09:41:41;94253.31;;;15.64;75.11
8366;BME280;4220;42.502;24.188;2023-04-26T09:44:20;94207.09;;;15.54;73.38
8366;BME280;4220;42.502;24.188;2023-04-26T09:46:57;94227.91;;;15.67;74.18
8366;BME280;4220;42.502;24.188;2023-04-26T09:49:25;94238.00;;;15.80;75.84
8366;BME280;4220;42.502;24.188;2023-04-26T09:52:04;94235.91;;;15.72;76.82
8366;BME280;4220;42.502;24.188;2023-04-26T09:54:44;94236.50;;;15.49;76.64
8366;BME280;4220;42.502;24.188;2023-04-26T09:57:12;94238.97;;;15.30;78.62
8366;BME280;4220;42.502;24.188;2023-04-26T09:59:40;94241.91;;;15.08;78.85
8366;BME280;4220;42.502;24.188;2023-04-26T10:02:13;94231.81;;;14.90;78.34
8366;BME280;4220;42.502;24.188;2023-04-26T10:04:43;94237.38;;;14.94;78.23
8366;BME280;4220;42.502;24.188;2023-04-26T10:07:11;94234.47;;;14.90;76.90
8366;BME280;4220;42.502;24.188;2023-04-26T10:09:38;94228.59;;;14.93;76.50
8366;BME280;4220;42.502;24.188;2023-04-26T10:12:08;94228.03;;;14.96;74.10
8366;BME280;4220;42.502;24.188;2023-04-26T10:14:36;94235.53;;;14.94;74.03
8366;BME280;4220;42.502;24.188;2023-04-26T10:17:03;94240.34;;;14.87;73.93
8366;BME280;4220;42.502;24.188;2023-04-26T10:19:32;94155.19;;;14.25;72.92
8366;BME280;4220;42.502;24.188;2023-04-26T10:22:03;94244.88;;;14.77;73.84
8366;BME280;4220;42.502;24.188;2023-04-26T10:24:31;94243.00;;;14.72;72.52
8366;BME280;4220;42.502;24.188;2023-04-26T10:26:59;94241.69;;;14.75;72.40
8366;BME280;4220;42.502;24.188;2023-04-26T10:32:30;94236.88;;;14.82;75.10
8366;BME280;4220;42.502;24.188;2023-04-26T10:35:12;94240.88;;;14.84;75.06
8366;BME280;4220;42.502;24.188;2023-04-26T10:38:08;94245.16;;;14.70;76.69
8366;BME280;4220;42.502;24.188;2023-04-26T10:40:37;94247.28;;;14.68;77.59
8366;BME280;4220;42.502;24.188;2023-04-26T10:43:28;94245.16;;;14.80;76.55
8366;BME280;4220;42.502;24.188;2023-04-26T10:46:32;94240.88;;;14.94;78.62
8366;BME280;4220;42.502;24.188;2023-04-26T10:49:11;94247.81;;;15.05;80.53
8366;BME280;4220;42.502;24.188;2023-04-26T10:51:38;94249.13;;;15.13;79.42
8366;BME280;4220;42.502;24.188;2023-04-26T10:54:06;94234.72;;;15.04;79.85
8366;BME280;4220;42.502;24.188;2023-04-26T10:56:51;94169.06;;;14.83;80.05
8366;BME280;4220;42.502;24.188;2023-04-26T10:59:21;94246.72;;;15.17;78.60
8366;BME280;4220;42.502;24.188;2023-04-26T11:01:48;94191.53;;;14.62;79.96
8366;BME280;4220;42.502;24.188;2023-04-26T11:04:19;94247.81;;;15.05;79.13
8366;BME280;4220;42.502;24.188;2023-04-26T11:06:47;94232.31;;;15.13;78.84
8366;BME280;4220;42.502;24.188;2023-04-26T11:09:35;94241.00;;;15.63;78.17
8366;BME280;4220;42.502;24.188;2023-04-26T11:12:06;94231.16;;;15.44;77.10
8366;BME280;4220;42.502;24.188;2023-04-26T11:14:37;94231.38;;;15.67;75.94
8366;BME280;4220;42.502;24.188;2023-04-26T11:17:07;94229.41;;;15.88;76.96
8366;BME280;4220;42.502;24.188;2023-04-26T11:19:35;94226.31;;;15.61;77.19
8366;BME280;4220;42.502;24.188;2023-04-26T11:22:05;94244.53;;;15.34;78.47
8366;BME280;4220;42.502;24.188;2023-04-26T11:24:34;94217.81;;;15.34;76.92
8366;BME280;4220;42.502;24.188;2023-04-26T11:27:07;94245.63;;;15.33;77.54
8366;BME280;4220;42.502;24.188;2023-04-26T11:29:34;94268.88;;;15.22;76.68
8366;BME280;4220;42.502;24.188;2023-04-26T11:32:01;94219.50;;;14.99;76.98
8366;BME280;4220;42.502;24.188;2023-04-26T11:34:31;94242.16;;;15.22;75.69
8366;BME280;4220;42.502;24.188;2023-04-26T11:37:00;94270.75;;;15.27;73.54
8366;BME280;4220;42.502;24.188;2023-04-26T11:39:29;94237.16;;;14.80;74.24
8366;BME280;4220;42.502;24.188;2023-04-26T11:42:03;94268.91;;;14.72;74.23
8366;BME280;4220;42.502;24.188;2023-04-26T11:44:31;94217.66;;;14.80;75.28
8366;BME280;4220;42.502;24.188;2023-04-26T11:46:59;94243.53;;;14.99;74.74
8366;BME280;4220;42.502;24.188;2023-04-26T11:49:28;94234.19;;;15.07;75.69
8366;BME280;4220;42.502;24.188;2023-04-26T11:51:56;94249.16;;;14.63;78.57
8366;BME280;4220;42.502;24.188;2023-04-26T11:54:27;94283.03;;;14.62;78.75
8366;BME280;4220;42.502;24.188;2023-04-26T11:56:56;94254.78;;;14.66;79.26
8366;BME280;4220;42.502;24.188;2023-04-26T11:59:23;94251.28;;;14.51;81.42
8366;BME280;4220;42.502;24.188;2023-04-26T12:01:50;94268.59;;;14.38;81.59
8366;BME280;4220;42.502;24.188;2023-04-26T12:04:18;94262.72;;;14.31;81.92
8366;BME280;4220;42.502;24.188;2023-04-26T12:06:45;94243.44;;;14.09;82.30
8366;BME280;4220;42.502;24.188;2023-04-26T12:09:14;94243.44;;;14.09;83.27
8366;BME280;4220;42.502;24.188;2023-04-26T12:11:47;94210.66;;;14.08;83.30
8366;BME280;4220;42.502;24.188;2023-04-26T12:14:14;94244.59;;;14.33;81.58
8366;BME280;4220;42.502;24.188;2023-04-26T12:16:41;94250.22;;;14.52;81.98
8366;BME280;4220;42.502;24.188;2023-04-26T12:19:08;94237.41;;;14.49;82.15
8366;BME280;4220;42.502;24.188;2023-04-26T12:21:40;94244.34;;;14.39;82.13
8366;BME280;4220;42.502;24.188;2023-04-26T12:24:22;94238.13;;;14.14;84.72
8366;BME280;4220;42.502;24.188;2023-04-26T12:26:50;94253.31;;;14.08;84.51
8366;BME280;4220;42.502;24.188;2023-04-26T12:29:17;94239.44;;;14.01;85.08
8366;BME280;4220;42.502;24.188;2023-04-26T12:31:45;94261.03;;;14.00;83.99
8366;BME280;4220;42.502;24.188;2023-04-26T12:34:12;94241.00;;;13.92;84.60
8366;BME280;4220;42.502;24.188;2023-04-26T12:36:40;94241.34;;;14.21;84.83
8366;BME280;4220;42.502;24.188;2023-04-26T12:39:09;94246.13;;;14.19;82.40
8366;BME280;4220;42.502;24.188;2023-04-26T12:41:37;94249.34;;;14.26;83.94
8366;BME280;4220;42.502;24.188;2023-04-26T12:44:06;94243.75;;;14.22;79.31
8366;BME280;4220;42.502;24.188;2023-04-26T12:46:33;94236.53;;;14.28;83.64
8366;BME280;4220;42.502;24.188;2023-04-26T12:49:00;94251.50;;;14.29;83.33
8366;BME280;4220;42.502;24.188;2023-04-26T12:51:28;94236.88;;;14.47;83.05
8366;BME280;4220;42.502;24.188;2023-04-26T12:53:56;94262.78;;;14.71;81.48
8366;BME280;4220;42.502;24.188;2023-04-26T12:56:23;94238.19;;;14.79;78.96
8366;BME280;4220;42.502;24.188;2023-04-26T12:58:50;94250.22;;;14.82;77.26
8366;BME280;4220;42.502;24.188;2023-04-26T13:01:18;94217.66;;;14.90;79.09
8366;BME280;4220;42.502;24.188;2023-04-26T13:03:45;94241.84;;;15.44;76.66
8366;BME280;4220;42.502;24.188;2023-04-26T13:06:12;94250.66;;;15.59;70.21
8366;BME280;4220;42.502;24.188;2023-04-26T13:08:38;94258.41;;;15.51;71.76
8366;BME280;4220;42.502;24.188;2023-04-26T13:11:05;94252.56;;;15.49;71.02
8366;BME280;4220;42.502;24.188;2023-04-26T13:13:32;94254.59;;;15.77;65.00
8366;BME280;4220;42.502;24.188;2023-04-26T13:15:59;94221.47;;;15.73;67.03